Hanjin Chongqing — 3EPJ2 — position and weather

sailwx.info

Track history (hours):
 
Tides and Currents Weather Stations Pressure Air Temp Water Temp Dewpoint Dewpoint Depression Visibility Wind Speed Wind Dir Waves Ship Positions

Hanjin Chongqing

Last reported at 2015-May-21 01:04 UTC. Time now 2015-May-24 19:27 UTC.
Position N 01°16' E 104°13'.

Length 304 m; draft 12 m.

Type: Cargo ship. MMSI: 353957976.

Date/timePositionNaut miles runAvg speedWind from/ knotsBaromVisibWave heightAir tempDewpointWater temp
2015-May-21 01:04N 01°16' E 104°13'1019.9
2015-May-21 00:33N 01°14' E 104°03'1211.8
2015-May-20 23:33N 01°16' E 103°51'1 0.5
2015-May-20 22:28N 01°16' E 103°51'0 0.0
2015-May-20 21:04N 01°16' E 103°51'0 0.0
2015-May-20 20:10N 01°16' E 103°51'0 0.0
2015-May-20 19:22N 01°16' E 103°51'0 0.0
2015-May-20 18:10N 01°16' E 103°51'0 0.0
2015-May-20 17:28N 01°16' E 103°51'0 0.0
2015-May-20 16:28N 01°16' E 103°51'0 0.0
2015-May-20 15:28N 01°16' E 103°51'0 0.0
2015-May-20 14:16N 01°16' E 103°51'0 0.0
2015-May-20 11:16N 01°16' E 103°51'0 0.0
2015-May-20 10:22N 01°16' E 103°51'0 0.0
2015-May-20 09:28N 01°16' E 103°51'0 0.0
2015-May-20 08:28N 01°16' E 103°51'0 0.0
2015-May-20 07:28N 01°16' E 103°51'0 0.0
2015-May-20 06:13N 01°16' E 103°51'0 0.0
2015-May-20 03:04N 01°16' E 103°51'0 0.0
2015-May-20 02:22N 01°16' E 103°51'0 0.0
2015-May-19 22:28N 01°16' E 103°51'0 0.0
2015-May-19 21:31N 01°16' E 103°51'2 2.5
2015-May-19 20:33N 01°14' E 103°53'3 2.8
2015-May-19 19:30N 01°11' E 103°52'68 9.2
2015-May-19 12:05N 01°37' E 102°49'610.6
2015-May-19 11:33N 01°40' E 102°44'1210.9
2015-May-19 10:28N 01°45' E 102°33'1010.4
2015-May-19 09:33N 01°49' E 102°24'9 8.7
2015-May-19 08:31N 01°53' E 102°17'9 8.3
2015-May-19 07:29N 01°58' E 102°09'  
Track history (hours):
 
Tides and Currents Weather Stations Pressure Air Temp Water Temp Dewpoint Dewpoint Depression Visibility Wind Speed Wind Dir Waves Ship Positions

Hanjin Chongqing

Last reported at 2015-May-21 01:04 UTC. Time now 2015-May-24 19:27 UTC.
Position N 01°16' E 104°13'.

Length 304 m; draft 12 m.

Type: Cargo ship. MMSI: 353957976.

Date/timePositionNaut miles runAvg speedWind from/ knotsBaromVisibWave heightAir tempDewpointWater temp
2015-May-21 01:04N 01°16' E 104°13'1019.9
2015-May-21 00:33N 01°14' E 104°03'1211.8
2015-May-20 23:33N 01°16' E 103°51'1 0.5
2015-May-20 22:28N 01°16' E 103°51'0 0.0
2015-May-20 21:04N 01°16' E 103°51'0 0.0
2015-May-20 20:10N 01°16' E 103°51'0 0.0
2015-May-20 19:22N 01°16' E 103°51'0 0.0
2015-May-20 18:10N 01°16' E 103°51'0 0.0
2015-May-20 17:28N 01°16' E 103°51'0 0.0
2015-May-20 16:28N 01°16' E 103°51'0 0.0
2015-May-20 15:28N 01°16' E 103°51'0 0.0
2015-May-20 14:16N 01°16' E 103°51'0 0.0
2015-May-20 11:16N 01°16' E 103°51'0 0.0
2015-May-20 10:22N 01°16' E 103°51'0 0.0
2015-May-20 09:28N 01°16' E 103°51'0 0.0
2015-May-20 08:28N 01°16' E 103°51'0 0.0
2015-May-20 07:28N 01°16' E 103°51'0 0.0
2015-May-20 06:13N 01°16' E 103°51'0 0.0
2015-May-20 03:04N 01°16' E 103°51'0 0.0
2015-May-20 02:22N 01°16' E 103°51'0 0.0
2015-May-19 22:28N 01°16' E 103°51'0 0.0
2015-May-19 21:31N 01°16' E 103°51'2 2.5
2015-May-19 20:33N 01°14' E 103°53'3 2.8
2015-May-19 19:30N 01°11' E 103°52'68 9.2
2015-May-19 12:05N 01°37' E 102°49'610.6
2015-May-19 11:33N 01°40' E 102°44'1210.9
2015-May-19 10:28N 01°45' E 102°33'1010.4
2015-May-19 09:33N 01°49' E 102°24'9 8.7
2015-May-19 08:31N 01°53' E 102°17'9 8.3
2015-May-19 07:29N 01°58' E 102°09'  

Dump ship's entire track history